sensor_id;sensor_type;location;lat;lon;timestamp;P1;durP1;ratioP1;P2;durP2;ratioP2
37931;SDS011;23758;42.640;23.302;2022-11-20T00:01:43;1.70;;;1.60;;
37931;SDS011;23758;42.640;23.302;2022-11-20T00:04:09;1.70;;;1.60;;
37931;SDS011;23758;42.640;23.302;2022-11-20T00:06:36;1.65;;;1.55;;
37931;SDS011;23758;42.640;23.302;2022-11-20T00:09:01;1.60;;;1.50;;
37931;SDS011;23758;42.640;23.302;2022-11-20T00:11:27;1.60;;;1.50;;
37931;SDS011;23758;42.640;23.302;2022-11-20T00:13:54;1.70;;;1.60;;
37931;SDS011;23758;42.640;23.302;2022-11-20T00:16:25;1.70;;;1.60;;
37931;SDS011;23758;42.640;23.302;2022-11-20T00:18:52;1.65;;;1.55;;
37931;SDS011;23758;42.640;23.302;2022-11-20T00:21:22;1.60;;;1.50;;
37931;SDS011;23758;42.640;23.302;2022-11-20T00:23:49;1.70;;;1.60;;
37931;SDS011;23758;42.640;23.302;2022-11-20T00:26:16;1.90;;;1.80;;
37931;SDS011;23758;42.640;23.302;2022-11-20T00:28:43;1.73;;;1.63;;
37931;SDS011;23758;42.640;23.302;2022-11-20T00:31:13;1.80;;;1.70;;
37931;SDS011;23758;42.640;23.302;2022-11-20T00:33:39;1.70;;;1.60;;
37931;SDS011;23758;42.640;23.302;2022-11-20T00:36:07;1.70;;;1.60;;
37931;SDS011;23758;42.640;23.302;2022-11-20T00:38:37;1.70;;;1.60;;
37931;SDS011;23758;42.640;23.302;2022-11-20T00:41:03;1.67;;;1.58;;
37931;SDS011;23758;42.640;23.302;2022-11-20T00:43:30;1.80;;;1.70;;
37931;SDS011;23758;42.640;23.302;2022-11-20T00:45:59;1.90;;;1.80;;
37931;SDS011;23758;42.640;23.302;2022-11-20T00:48:26;1.65;;;1.55;;
37931;SDS011;23758;42.640;23.302;2022-11-20T00:50:52;1.80;;;1.70;;
37931;SDS011;23758;42.640;23.302;2022-11-20T00:53:18;1.73;;;1.63;;
37931;SDS011;23758;42.640;23.302;2022-11-20T00:55:51;1.70;;;1.60;;
37931;SDS011;23758;42.640;23.302;2022-11-20T00:58:18;1.73;;;1.63;;
37931;SDS011;23758;42.640;23.302;2022-11-20T01:00:43;1.67;;;1.58;;
37931;SDS011;23758;42.640;23.302;2022-11-20T01:03:09;1.70;;;1.60;;
37931;SDS011;23758;42.640;23.302;2022-11-20T01:05:34;1.92;;;1.83;;
37931;SDS011;23758;42.640;23.302;2022-11-20T01:08:00;1.75;;;1.65;;
37931;SDS011;23758;42.640;23.302;2022-11-20T01:10:26;1.67;;;1.58;;
37931;SDS011;23758;42.640;23.302;2022-11-20T01:12:51;1.85;;;1.75;;
37931;SDS011;23758;42.640;23.302;2022-11-20T01:15:37;1.73;;;1.63;;
37931;SDS011;23758;42.640;23.302;2022-11-20T01:18:02;1.80;;;1.70;;
37931;SDS011;23758;42.640;23.302;2022-11-20T01:20:28;1.70;;;1.60;;
37931;SDS011;23758;42.640;23.302;2022-11-20T01:22:53;5.13;;;1.92;;
37931;SDS011;23758;42.640;23.302;2022-11-20T01:25:19;1.70;;;1.60;;
37931;SDS011;23758;42.640;23.302;2022-11-20T01:27:44;1.80;;;1.70;;
37931;SDS011;23758;42.640;23.302;2022-11-20T01:30:10;1.70;;;1.60;;
37931;SDS011;23758;42.640;23.302;2022-11-20T01:32:36;1.70;;;1.60;;
37931;SDS011;23758;42.640;23.302;2022-11-20T01:35:01;2.25;;;2.13;;
37931;SDS011;23758;42.640;23.302;2022-11-20T01:37:27;1.70;;;1.60;;
37931;SDS011;23758;42.640;23.302;2022-11-20T01:39:52;1.70;;;1.60;;
37931;SDS011;23758;42.640;23.302;2022-11-20T01:42:18;2.92;;;2.72;;
37931;SDS011;23758;42.640;23.302;2022-11-20T01:45:42;1.80;;;1.70;;
37931;SDS011;23758;42.640;23.302;2022-11-20T01:48:05;1.70;;;1.60;;
37931;SDS011;23758;42.640;23.302;2022-11-20T01:50:31;1.60;;;1.50;;
37931;SDS011;23758;42.640;23.302;2022-11-20T01:53:02;2.05;;;1.95;;
37931;SDS011;23758;42.640;23.302;2022-11-20T01:55:34;1.80;;;1.70;;
37931;SDS011;23758;42.640;23.302;2022-11-20T01:58:02;1.80;;;1.70;;
37931;SDS011;23758;42.640;23.302;2022-11-20T02:00:28;1.70;;;1.60;;
37931;SDS011;23758;42.640;23.302;2022-11-20T02:02:57;1.80;;;1.70;;
37931;SDS011;23758;42.640;23.302;2022-11-20T02:08:20;1.80;;;1.70;;
37931;SDS011;23758;42.640;23.302;2022-11-20T02:10:46;1.90;;;1.80;;
37931;SDS011;23758;42.640;23.302;2022-11-20T02:13:12;1.88;;;1.77;;
37931;SDS011;23758;42.640;23.302;2022-11-20T02:15:56;1.63;;;1.52;;
37931;SDS011;23758;42.640;23.302;2022-11-20T02:18:21;1.60;;;1.50;;
37931;SDS011;23758;42.640;23.302;2022-11-20T02:20:49;1.88;;;1.73;;
37931;SDS011;23758;42.640;23.302;2022-11-20T02:25:52;1.92;;;1.83;;
37931;SDS011;23758;42.640;23.302;2022-11-20T02:28:18;2.20;;;1.95;;
37931;SDS011;23758;42.640;23.302;2022-11-20T02:30:44;1.90;;;1.80;;
37931;SDS011;23758;42.640;23.302;2022-11-20T02:33:09;1.70;;;1.60;;
37931;SDS011;23758;42.640;23.302;2022-11-20T02:38:01;1.70;;;1.60;;
37931;SDS011;23758;42.640;23.302;2022-11-20T02:40:27;2.70;;;2.28;;
37931;SDS011;23758;42.640;23.302;2022-11-20T02:42:57;1.80;;;1.70;;
37931;SDS011;23758;42.640;23.302;2022-11-20T02:45:23;1.70;;;1.60;;
37931;SDS011;23758;42.640;23.302;2022-11-20T02:47:49;1.70;;;1.60;;
37931;SDS011;23758;42.640;23.302;2022-11-20T02:50:15;1.90;;;1.80;;
37931;SDS011;23758;42.640;23.302;2022-11-20T02:52:41;1.80;;;1.70;;
37931;SDS011;23758;42.640;23.302;2022-11-20T02:55:07;1.90;;;1.80;;
37931;SDS011;23758;42.640;23.302;2022-11-20T02:57:33;1.70;;;1.60;;
37931;SDS011;23758;42.640;23.302;2022-11-20T02:59:58;1.80;;;1.70;;
37931;SDS011;23758;42.640;23.302;2022-11-20T03:02:24;1.70;;;1.60;;
37931;SDS011;23758;42.640;23.302;2022-11-20T03:04:49;1.80;;;1.70;;
37931;SDS011;23758;42.640;23.302;2022-11-20T03:07:15;1.83;;;1.73;;
37931;SDS011;23758;42.640;23.302;2022-11-20T03:09:40;1.90;;;1.80;;
37931;SDS011;23758;42.640;23.302;2022-11-20T03:12:06;1.90;;;1.80;;
37931;SDS011;23758;42.640;23.302;2022-11-20T03:14:32;1.85;;;1.75;;
37931;SDS011;23758;42.640;23.302;2022-11-20T03:16:57;1.90;;;1.80;;
37931;SDS011;23758;42.640;23.302;2022-11-20T03:19:23;1.85;;;1.75;;
37931;SDS011;23758;42.640;23.302;2022-11-20T03:21:48;2.17;;;1.98;;
37931;SDS011;23758;42.640;23.302;2022-11-20T03:24:14;2.00;;;1.90;;
37931;SDS011;23758;42.640;23.302;2022-11-20T03:26:40;1.90;;;1.80;;
37931;SDS011;23758;42.640;23.302;2022-11-20T03:29:06;1.85;;;1.75;;
37931;SDS011;23758;42.640;23.302;2022-11-20T03:31:33;2.00;;;1.90;;
37931;SDS011;23758;42.640;23.302;2022-11-20T03:34:01;2.00;;;1.90;;
37931;SDS011;23758;42.640;23.302;2022-11-20T03:36:27;2.20;;;2.10;;
37931;SDS011;23758;42.640;23.302;2022-11-20T03:38:53;1.83;;;1.73;;
37931;SDS011;23758;42.640;23.302;2022-11-20T03:41:20;2.97;;;2.67;;
37931;SDS011;23758;42.640;23.302;2022-11-20T03:43:57;1.90;;;1.80;;
37931;SDS011;23758;42.640;23.302;2022-11-20T03:46:23;2.00;;;1.90;;
37931;SDS011;23758;42.640;23.302;2022-11-20T03:48:49;1.90;;;1.80;;
37931;SDS011;23758;42.640;23.302;2022-11-20T03:51:16;1.80;;;1.70;;
37931;SDS011;23758;42.640;23.302;2022-11-20T03:53:44;1.80;;;1.70;;
37931;SDS011;23758;42.640;23.302;2022-11-20T03:56:11;1.90;;;1.80;;
37931;SDS011;23758;42.640;23.302;2022-11-20T03:58:38;1.80;;;1.70;;
37931;SDS011;23758;42.640;23.302;2022-11-20T04:01:05;2.33;;;2.17;;
37931;SDS011;23758;42.640;23.302;2022-11-20T04:03:41;5.28;;;1.92;;
37931;SDS011;23758;42.640;23.302;2022-11-20T04:06:11;1.80;;;1.70;;
37931;SDS011;23758;42.640;23.302;2022-11-20T04:08:40;2.20;;;2.10;;
37931;SDS011;23758;42.640;23.302;2022-11-20T04:13:37;1.80;;;1.70;;
37931;SDS011;23758;42.640;23.302;2022-11-20T04:16:03;1.83;;;1.73;;
37931;SDS011;23758;42.640;23.302;2022-11-20T04:18:29;2.70;;;2.50;;
37931;SDS011;23758;42.640;23.302;2022-11-20T04:20:56;2.00;;;1.90;;
37931;SDS011;23758;42.640;23.302;2022-11-20T04:23:22;1.80;;;1.70;;
37931;SDS011;23758;42.640;23.302;2022-11-20T04:25:48;1.80;;;1.70;;
37931;SDS011;23758;42.640;23.302;2022-11-20T04:28:13;1.85;;;1.75;;
37931;SDS011;23758;42.640;23.302;2022-11-20T04:30:39;1.80;;;1.70;;
37931;SDS011;23758;42.640;23.302;2022-11-20T04:33:04;1.90;;;1.80;;
37931;SDS011;23758;42.640;23.302;2022-11-20T04:35:29;1.98;;;1.88;;
37931;SDS011;23758;42.640;23.302;2022-11-20T04:37:55;1.83;;;1.73;;
37931;SDS011;23758;42.640;23.302;2022-11-20T04:40:20;1.80;;;1.70;;
37931;SDS011;23758;42.640;23.302;2022-11-20T04:42:46;1.90;;;1.80;;
37931;SDS011;23758;42.640;23.302;2022-11-20T04:45:11;1.80;;;1.70;;
37931;SDS011;23758;42.640;23.302;2022-11-20T04:47:37;1.80;;;1.70;;
37931;SDS011;23758;42.640;23.302;2022-11-20T04:50:02;1.90;;;1.80;;
37931;SDS011;23758;42.640;23.302;2022-11-20T04:52:28;2.08;;;1.98;;
37931;SDS011;23758;42.640;23.302;2022-11-20T04:54:53;1.80;;;1.70;;
37931;SDS011;23758;42.640;23.302;2022-11-20T04:57:19;1.80;;;1.70;;
37931;SDS011;23758;42.640;23.302;2022-11-20T04:59:45;1.80;;;1.70;;
37931;SDS011;23758;42.640;23.302;2022-11-20T05:02:10;1.85;;;1.75;;
37931;SDS011;23758;42.640;23.302;2022-11-20T05:04:36;1.90;;;1.80;;
37931;SDS011;23758;42.640;23.302;2022-11-20T05:07:01;1.80;;;1.70;;
37931;SDS011;23758;42.640;23.302;2022-11-20T05:09:27;1.90;;;1.80;;
37931;SDS011;23758;42.640;23.302;2022-11-20T05:11:52;1.90;;;1.80;;
37931;SDS011;23758;42.640;23.302;2022-11-20T05:14:18;1.90;;;1.80;;
37931;SDS011;23758;42.640;23.302;2022-11-20T05:16:43;1.70;;;1.60;;
37931;SDS011;23758;42.640;23.302;2022-11-20T05:19:09;1.90;;;1.80;;
37931;SDS011;23758;42.640;23.302;2022-11-20T05:21:34;1.85;;;1.75;;
37931;SDS011;23758;42.640;23.302;2022-11-20T05:24:00;1.90;;;1.80;;
37931;SDS011;23758;42.640;23.302;2022-11-20T05:26:25;1.90;;;1.80;;
37931;SDS011;23758;42.640;23.302;2022-11-20T05:28:51;1.80;;;1.70;;
37931;SDS011;23758;42.640;23.302;2022-11-20T05:31:17;1.88;;;1.77;;
37931;SDS011;23758;42.640;23.302;2022-11-20T05:33:44;1.90;;;1.80;;
37931;SDS011;23758;42.640;23.302;2022-11-20T05:36:11;1.80;;;1.70;;
37931;SDS011;23758;42.640;23.302;2022-11-20T05:38:38;1.83;;;1.73;;
37931;SDS011;23758;42.640;23.302;2022-11-20T05:41:07;1.80;;;1.70;;
37931;SDS011;23758;42.640;23.302;2022-11-20T05:43:33;1.80;;;1.70;;
37931;SDS011;23758;42.640;23.302;2022-11-20T05:45:59;2.00;;;1.80;;
37931;SDS011;23758;42.640;23.302;2022-11-20T05:48:25;1.90;;;1.80;;
37931;SDS011;23758;42.640;23.302;2022-11-20T05:50:51;1.80;;;1.70;;
37931;SDS011;23758;42.640;23.302;2022-11-20T05:53:16;1.90;;;1.80;;
37931;SDS011;23758;42.640;23.302;2022-11-20T05:55:42;1.90;;;1.80;;
37931;SDS011;23758;42.640;23.302;2022-11-20T05:58:07;1.80;;;1.70;;
37931;SDS011;23758;42.640;23.302;2022-11-20T06:00:33;1.80;;;1.70;;
37931;SDS011;23758;42.640;23.302;2022-11-20T06:02:58;1.90;;;1.80;;
37931;SDS011;23758;42.640;23.302;2022-11-20T06:05:23;1.75;;;1.65;;
37931;SDS011;23758;42.640;23.302;2022-11-20T06:07:49;1.90;;;1.80;;
37931;SDS011;23758;42.640;23.302;2022-11-20T06:10:14;1.80;;;1.70;;
37931;SDS011;23758;42.640;23.302;2022-11-20T06:12:40;1.80;;;1.70;;
37931;SDS011;23758;42.640;23.302;2022-11-20T06:15:05;2.60;;;2.40;;
37931;SDS011;23758;42.640;23.302;2022-11-20T06:17:31;1.85;;;1.75;;
37931;SDS011;23758;42.640;23.302;2022-11-20T06:19:57;2.17;;;2.08;;
37931;SDS011;23758;42.640;23.302;2022-11-20T06:22:22;2.00;;;1.90;;
37931;SDS011;23758;42.640;23.302;2022-11-20T06:24:48;1.85;;;1.75;;
37931;SDS011;23758;42.640;23.302;2022-11-20T06:27:13;1.80;;;1.70;;
37931;SDS011;23758;42.640;23.302;2022-11-20T06:29:39;2.25;;;2.15;;
37931;SDS011;23758;42.640;23.302;2022-11-20T06:32:04;1.90;;;1.80;;
37931;SDS011;23758;42.640;23.302;2022-11-20T06:34:30;1.80;;;1.70;;
37931;SDS011;23758;42.640;23.302;2022-11-20T06:36:55;1.75;;;1.65;;
37931;SDS011;23758;42.640;23.302;2022-11-20T06:39:21;2.03;;;1.92;;
37931;SDS011;23758;42.640;23.302;2022-11-20T06:41:46;2.10;;;2.00;;
37931;SDS011;23758;42.640;23.302;2022-11-20T06:44:12;2.22;;;2.10;;
37931;SDS011;23758;42.640;23.302;2022-11-20T06:46:37;2.75;;;2.38;;
37931;SDS011;23758;42.640;23.302;2022-11-20T06:49:03;1.70;;;1.60;;
37931;SDS011;23758;42.640;23.302;2022-11-20T06:51:29;1.70;;;1.60;;
37931;SDS011;23758;42.640;23.302;2022-11-20T06:53:54;1.60;;;1.50;;
37931;SDS011;23758;42.640;23.302;2022-11-20T06:56:20;1.73;;;1.63;;
37931;SDS011;23758;42.640;23.302;2022-11-20T06:58:45;1.70;;;1.60;;
37931;SDS011;23758;42.640;23.302;2022-11-20T07:01:11;1.83;;;1.73;;
37931;SDS011;23758;42.640;23.302;2022-11-20T07:03:38;1.77;;;1.67;;
37931;SDS011;23758;42.640;23.302;2022-11-20T07:06:04;1.60;;;1.50;;
37931;SDS011;23758;42.640;23.302;2022-11-20T07:08:30;1.70;;;1.60;;
37931;SDS011;23758;42.640;23.302;2022-11-20T07:10:59;1.60;;;1.50;;
37931;SDS011;23758;42.640;23.302;2022-11-20T07:13:26;1.63;;;1.52;;
37931;SDS011;23758;42.640;23.302;2022-11-20T07:15:52;1.60;;;1.50;;
37931;SDS011;23758;42.640;23.302;2022-11-20T07:18:18;1.80;;;1.70;;
37931;SDS011;23758;42.640;23.302;2022-11-20T07:20:43;1.70;;;1.60;;
37931;SDS011;23758;42.640;23.302;2022-11-20T07:23:09;1.90;;;1.80;;
37931;SDS011;23758;42.640;23.302;2022-11-20T07:25:34;1.73;;;1.63;;
37931;SDS011;23758;42.640;23.302;2022-11-20T07:28:00;1.75;;;1.65;;
37931;SDS011;23758;42.640;23.302;2022-11-20T07:30:26;1.70;;;1.60;;
37931;SDS011;23758;42.640;23.302;2022-11-20T07:32:52;1.70;;;1.60;;
37931;SDS011;23758;42.640;23.302;2022-11-20T07:35:19;2.08;;;1.98;;
37931;SDS011;23758;42.640;23.302;2022-11-20T07:37:45;1.80;;;1.70;;
37931;SDS011;23758;42.640;23.302;2022-11-20T07:40:11;1.70;;;1.60;;
37931;SDS011;23758;42.640;23.302;2022-11-20T07:42:37;1.70;;;1.60;;
37931;SDS011;23758;42.640;23.302;2022-11-20T07:45:16;1.70;;;1.60;;
37931;SDS011;23758;42.640;23.302;2022-11-20T07:47:42;1.70;;;1.60;;
37931;SDS011;23758;42.640;23.302;2022-11-20T07:50:07;1.70;;;1.60;;
37931;SDS011;23758;42.640;23.302;2022-11-20T07:52:33;3.70;;;2.58;;
37931;SDS011;23758;42.640;23.302;2022-11-20T07:54:58;1.77;;;1.67;;
37931;SDS011;23758;42.640;23.302;2022-11-20T07:57:24;1.98;;;1.88;;
37931;SDS011;23758;42.640;23.302;2022-11-20T07:59:49;2.00;;;1.90;;
37931;SDS011;23758;42.640;23.302;2022-11-20T08:02:15;1.90;;;1.80;;
37931;SDS011;23758;42.640;23.302;2022-11-20T08:04:40;2.20;;;2.00;;
37931;SDS011;23758;42.640;23.302;2022-11-20T08:07:05;3.17;;;2.45;;
37931;SDS011;23758;42.640;23.302;2022-11-20T08:09:31;1.90;;;1.80;;
37931;SDS011;23758;42.640;23.302;2022-11-20T08:11:57;1.80;;;1.70;;
37931;SDS011;23758;42.640;23.302;2022-11-20T08:14:41;1.92;;;1.83;;
37931;SDS011;23758;42.640;23.302;2022-11-20T08:17:07;2.00;;;1.90;;
37931;SDS011;23758;42.640;23.302;2022-11-20T08:19:32;2.00;;;1.90;;
37931;SDS011;23758;42.640;23.302;2022-11-20T08:21:58;2.13;;;2.03;;
37931;SDS011;23758;42.640;23.302;2022-11-20T08:24:23;2.22;;;2.05;;
37931;SDS011;23758;42.640;23.302;2022-11-20T08:26:51;1.80;;;1.70;;
37931;SDS011;23758;42.640;23.302;2022-11-20T08:29:17;1.70;;;1.60;;
37931;SDS011;23758;42.640;23.302;2022-11-20T08:31:42;4.75;;;2.75;;
37931;SDS011;23758;42.640;23.302;2022-11-20T08:34:08;4.93;;;2.15;;
37931;SDS011;23758;42.640;23.302;2022-11-20T08:36:33;1.95;;;1.83;;
37931;SDS011;23758;42.640;23.302;2022-11-20T08:39:00;1.60;;;1.50;;
37931;SDS011;23758;42.640;23.302;2022-11-20T08:41:25;1.50;;;1.40;;
37931;SDS011;23758;42.640;23.302;2022-11-20T08:46:23;1.70;;;1.60;;
37931;SDS011;23758;42.640;23.302;2022-11-20T08:48:52;1.88;;;1.77;;
37931;SDS011;23758;42.640;23.302;2022-11-20T08:51:18;1.88;;;1.77;;
37931;SDS011;23758;42.640;23.302;2022-11-20T08:53:44;2.00;;;1.90;;
37931;SDS011;23758;42.640;23.302;2022-11-20T08:56:10;2.00;;;1.90;;
37931;SDS011;23758;42.640;23.302;2022-11-20T08:58:36;2.20;;;2.10;;
37931;SDS011;23758;42.640;23.302;2022-11-20T09:01:02;2.10;;;2.00;;
37931;SDS011;23758;42.640;23.302;2022-11-20T09:03:28;2.08;;;1.98;;
37931;SDS011;23758;42.640;23.302;2022-11-20T09:06:00;2.15;;;2.05;;
37931;SDS011;23758;42.640;23.302;2022-11-20T09:08:27;1.90;;;1.80;;
37931;SDS011;23758;42.640;23.302;2022-11-20T09:10:54;1.95;;;1.85;;
37931;SDS011;23758;42.640;23.302;2022-11-20T09:13:21;2.10;;;2.00;;
37931;SDS011;23758;42.640;23.302;2022-11-20T09:15:47;2.10;;;2.00;;
37931;SDS011;23758;42.640;23.302;2022-11-20T09:18:12;2.15;;;2.05;;
37931;SDS011;23758;42.640;23.302;2022-11-20T09:20:38;2.00;;;1.90;;
37931;SDS011;23758;42.640;23.302;2022-11-20T09:23:03;2.10;;;2.00;;
37931;SDS011;23758;42.640;23.302;2022-11-20T09:25:29;2.10;;;2.00;;
37931;SDS011;23758;42.640;23.302;2022-11-20T09:27:58;2.10;;;2.00;;
37931;SDS011;23758;42.640;23.302;2022-11-20T09:30:23;2.40;;;2.30;;
37931;SDS011;23758;42.640;23.302;2022-11-20T09:32:49;2.47;;;2.38;;
37931;SDS011;23758;42.640;23.302;2022-11-20T09:35:15;2.45;;;2.35;;
37931;SDS011;23758;42.640;23.302;2022-11-20T09:37:41;2.90;;;2.70;;
37931;SDS011;23758;42.640;23.302;2022-11-20T09:40:08;2.20;;;2.10;;
37931;SDS011;23758;42.640;23.302;2022-11-20T09:48:29;2.28;;;2.17;;
37931;SDS011;23758;42.640;23.302;2022-11-20T09:56:43;2.67;;;2.47;;
37931;SDS011;23758;42.640;23.302;2022-11-20T10:04:50;2.92;;;2.72;;
37931;SDS011;23758;42.640;23.302;2022-11-20T10:07:23;5.15;;;2.85;;
37931;SDS011;23758;42.640;23.302;2022-11-20T10:09:56;2.40;;;2.20;;
37931;SDS011;23758;42.640;23.302;2022-11-20T10:31:27;2.72;;;2.53;;
37931;SDS011;23758;42.640;23.302;2022-11-20T10:33:56;2.05;;;1.95;;
37931;SDS011;23758;42.640;23.302;2022-11-20T10:36:26;2.00;;;1.90;;
37931;SDS011;23758;42.640;23.302;2022-11-20T10:39:04;2.28;;;2.17;;
37931;SDS011;23758;42.640;23.302;2022-11-20T10:41:34;1.95;;;1.85;;
37931;SDS011;23758;42.640;23.302;2022-11-20T10:44:04;2.00;;;1.90;;
37931;SDS011;23758;42.640;23.302;2022-11-20T10:46:37;2.35;;;2.15;;
37931;SDS011;23758;42.640;23.302;2022-11-20T10:49:14;2.20;;;2.10;;
37931;SDS011;23758;42.640;23.302;2022-11-20T10:51:45;2.00;;;1.90;;
37931;SDS011;23758;42.640;23.302;2022-11-20T10:57:17;2.13;;;2.03;;
37931;SDS011;23758;42.640;23.302;2022-11-20T11:00:03;7.47;;;2.70;;
37931;SDS011;23758;42.640;23.302;2022-11-20T11:02:54;2.33;;;2.13;;
37931;SDS011;23758;42.640;23.302;2022-11-20T11:08:01;2.10;;;2.00;;
37931;SDS011;23758;42.640;23.302;2022-11-20T11:13:19;1.98;;;1.88;;
37931;SDS011;23758;42.640;23.302;2022-11-20T11:15:46;2.10;;;2.00;;
37931;SDS011;23758;42.640;23.302;2022-11-20T11:18:22;2.00;;;1.90;;
37931;SDS011;23758;42.640;23.302;2022-11-20T11:20:51;2.40;;;2.30;;
37931;SDS011;23758;42.640;23.302;2022-11-20T11:26:18;2.10;;;2.00;;
37931;SDS011;23758;42.640;23.302;2022-11-20T11:28:58;2.20;;;2.10;;
37931;SDS011;23758;42.640;23.302;2022-11-20T11:31:25;2.30;;;2.20;;
37931;SDS011;23758;42.640;23.302;2022-11-20T11:34:11;2.45;;;2.35;;
37931;SDS011;23758;42.640;23.302;2022-11-20T11:36:38;2.25;;;2.15;;
37931;SDS011;23758;42.640;23.302;2022-11-20T11:39:04;2.50;;;2.40;;
37931;SDS011;23758;42.640;23.302;2022-11-20T11:41:33;2.47;;;2.38;;
37931;SDS011;23758;42.640;23.302;2022-11-20T11:44:15;2.63;;;2.42;;
37931;SDS011;23758;42.640;23.302;2022-11-20T11:47:05;2.50;;;2.40;;
37931;SDS011;23758;42.640;23.302;2022-11-20T11:49:48;2.38;;;2.28;;
37931;SDS011;23758;42.640;23.302;2022-11-20T11:52:15;3.22;;;2.92;;
37931;SDS011;23758;42.640;23.302;2022-11-20T12:00:18;2.40;;;2.30;;
37931;SDS011;23758;42.640;23.302;2022-11-20T12:05:16;2.30;;;2.20;;
37931;SDS011;23758;42.640;23.302;2022-11-20T12:10:17;2.40;;;2.30;;
37931;SDS011;23758;42.640;23.302;2022-11-20T12:12:54;2.30;;;2.20;;
37931;SDS011;23758;42.640;23.302;2022-11-20T12:15:30;4.72;;;3.20;;
37931;SDS011;23758;42.640;23.302;2022-11-20T12:17:58;3.08;;;2.88;;
37931;SDS011;23758;42.640;23.302;2022-11-20T12:20:24;2.50;;;2.40;;
37931;SDS011;23758;42.640;23.302;2022-11-20T12:23:05;2.47;;;2.38;;
37931;SDS011;23758;42.640;23.302;2022-11-20T12:25:43;2.53;;;2.40;;
37931;SDS011;23758;42.640;23.302;2022-11-20T12:31:30;2.40;;;2.30;;
37931;SDS011;23758;42.640;23.302;2022-11-20T12:34:27;2.30;;;2.20;;
37931;SDS011;23758;42.640;23.302;2022-11-20T12:37:04;2.22;;;2.13;;
37931;SDS011;23758;42.640;23.302;2022-11-20T12:39:42;2.20;;;2.10;;
37931;SDS011;23758;42.640;23.302;2022-11-20T12:47:58;2.35;;;2.25;;
37931;SDS011;23758;42.640;23.302;2022-11-20T12:56:30;2.40;;;2.30;;
37931;SDS011;23758;42.640;23.302;2022-11-20T13:01:47;2.30;;;2.20;;
37931;SDS011;23758;42.640;23.302;2022-11-20T13:07:01;2.70;;;2.50;;
37931;SDS011;23758;42.640;23.302;2022-11-20T13:09:28;2.40;;;2.30;;
37931;SDS011;23758;42.640;23.302;2022-11-20T13:19:52;2.35;;;2.25;;
37931;SDS011;23758;42.640;23.302;2022-11-20T13:25:24;2.30;;;2.20;;
37931;SDS011;23758;42.640;23.302;2022-11-20T13:27:50;2.40;;;2.30;;
37931;SDS011;23758;42.640;23.302;2022-11-20T13:30:17;2.33;;;2.22;;
37931;SDS011;23758;42.640;23.302;2022-11-20T13:32:54;2.35;;;2.25;;
37931;SDS011;23758;42.640;23.302;2022-11-20T13:35:25;2.70;;;2.50;;
37931;SDS011;23758;42.640;23.302;2022-11-20T13:38:09;2.30;;;2.20;;
37931;SDS011;23758;42.640;23.302;2022-11-20T13:40:50;2.67;;;2.53;;
37931;SDS011;23758;42.640;23.302;2022-11-20T13:43:19;2.40;;;2.30;;
37931;SDS011;23758;42.640;23.302;2022-11-20T13:45:55;2.35;;;2.25;;
37931;SDS011;23758;42.640;23.302;2022-11-20T13:48:23;2.80;;;2.60;;
37931;SDS011;23758;42.640;23.302;2022-11-20T13:53:57;2.50;;;2.40;;
37931;SDS011;23758;42.640;23.302;2022-11-20T14:02:13;2.40;;;2.30;;
37931;SDS011;23758;42.640;23.302;2022-11-20T14:04:41;2.80;;;2.63;;
37931;SDS011;23758;42.640;23.302;2022-11-20T14:07:09;2.75;;;2.55;;
37931;SDS011;23758;42.640;23.302;2022-11-20T14:09:34;2.70;;;2.50;;
37931;SDS011;23758;42.640;23.302;2022-11-20T14:12:01;2.63;;;2.42;;
37931;SDS011;23758;42.640;23.302;2022-11-20T14:14:28;2.60;;;2.45;;
37931;SDS011;23758;42.640;23.302;2022-11-20T14:17:07;2.67;;;2.47;;
37931;SDS011;23758;42.640;23.302;2022-11-20T14:19:33;3.00;;;2.80;;
37931;SDS011;23758;42.640;23.302;2022-11-20T14:22:14;3.03;;;2.83;;
37931;SDS011;23758;42.640;23.302;2022-11-20T14:24:43;2.63;;;2.45;;
37931;SDS011;23758;42.640;23.302;2022-11-20T14:27:11;2.70;;;2.50;;
37931;SDS011;23758;42.640;23.302;2022-11-20T14:29:38;4.03;;;3.72;;
37931;SDS011;23758;42.640;23.302;2022-11-20T14:32:05;2.97;;;2.78;;
37931;SDS011;23758;42.640;23.302;2022-11-20T14:34:32;2.50;;;2.40;;
37931;SDS011;23758;42.640;23.302;2022-11-20T14:37:02;2.50;;;2.40;;
37931;SDS011;23758;42.640;23.302;2022-11-20T14:39:33;2.83;;;2.63;;
37931;SDS011;23758;42.640;23.302;2022-11-20T14:42:00;2.70;;;2.50;;
37931;SDS011;23758;42.640;23.302;2022-11-20T14:44:30;2.50;;;2.40;;
37931;SDS011;23758;42.640;23.302;2022-11-20T14:46:58;2.30;;;2.20;;
37931;SDS011;23758;42.640;23.302;2022-11-20T14:49:25;2.25;;;2.15;;
37931;SDS011;23758;42.640;23.302;2022-11-20T14:52:52;2.30;;;2.20;;
37931;SDS011;23758;42.640;23.302;2022-11-20T14:54:51;2.67;;;2.47;;
37931;SDS011;23758;42.640;23.302;2022-11-20T14:59:50;2.15;;;2.05;;
37931;SDS011;23758;42.640;23.302;2022-11-20T15:02:16;2.10;;;2.00;;
37931;SDS011;23758;42.640;23.302;2022-11-20T15:04:48;2.08;;;1.98;;
37931;SDS011;23758;42.640;23.302;2022-11-20T15:07:25;2.10;;;2.00;;
37931;SDS011;23758;42.640;23.302;2022-11-20T15:12:31;2.10;;;2.00;;
37931;SDS011;23758;42.640;23.302;2022-11-20T15:14:58;2.20;;;2.10;;
37931;SDS011;23758;42.640;23.302;2022-11-20T15:17:23;2.20;;;2.10;;
37931;SDS011;23758;42.640;23.302;2022-11-20T15:19:49;2.35;;;2.25;;
37931;SDS011;23758;42.640;23.302;2022-11-20T15:22:16;2.10;;;2.00;;
37931;SDS011;23758;42.640;23.302;2022-11-20T15:24:41;2.30;;;2.20;;
37931;SDS011;23758;42.640;23.302;2022-11-20T15:27:07;2.30;;;2.20;;
37931;SDS011;23758;42.640;23.302;2022-11-20T15:29:33;2.20;;;2.10;;
37931;SDS011;23758;42.640;23.302;2022-11-20T15:31:59;2.10;;;2.00;;
37931;SDS011;23758;42.640;23.302;2022-11-20T15:34:26;2.30;;;2.20;;
37931;SDS011;23758;42.640;23.302;2022-11-20T15:36:51;2.00;;;1.90;;
37931;SDS011;23758;42.640;23.302;2022-11-20T15:39:18;2.10;;;2.00;;
37931;SDS011;23758;42.640;23.302;2022-11-20T15:41:43;2.17;;;2.08;;
37931;SDS011;23758;42.640;23.302;2022-11-20T15:44:09;2.10;;;2.00;;
37931;SDS011;23758;42.640;23.302;2022-11-20T15:46:38;2.13;;;2.03;;
37931;SDS011;23758;42.640;23.302;2022-11-20T15:49:09;2.22;;;2.13;;
37931;SDS011;23758;42.640;23.302;2022-11-20T15:51:37;2.10;;;2.00;;
37931;SDS011;23758;42.640;23.302;2022-11-20T15:54:11;2.00;;;1.90;;
37931;SDS011;23758;42.640;23.302;2022-11-20T15:56:38;2.10;;;2.00;;
37931;SDS011;23758;42.640;23.302;2022-11-20T15:59:03;2.60;;;2.40;;
37931;SDS011;23758;42.640;23.302;2022-11-20T16:01:29;2.20;;;2.10;;
37931;SDS011;23758;42.640;23.302;2022-11-20T16:03:55;2.40;;;2.30;;
37931;SDS011;23758;42.640;23.302;2022-11-20T16:06:20;2.28;;;2.17;;
37931;SDS011;23758;42.640;23.302;2022-11-20T16:08:46;2.33;;;2.22;;
37931;SDS011;23758;42.640;23.302;2022-11-20T16:11:16;2.38;;;2.28;;
37931;SDS011;23758;42.640;23.302;2022-11-20T16:13:42;2.45;;;2.35;;
37931;SDS011;23758;42.640;23.302;2022-11-20T16:16:31;2.50;;;2.40;;
37931;SDS011;23758;42.640;23.302;2022-11-20T16:18:58;2.50;;;2.40;;
37931;SDS011;23758;42.640;23.302;2022-11-20T16:21:23;2.35;;;2.25;;
37931;SDS011;23758;42.640;23.302;2022-11-20T16:23:56;2.70;;;2.50;;
37931;SDS011;23758;42.640;23.302;2022-11-20T16:26:25;2.40;;;2.30;;
37931;SDS011;23758;42.640;23.302;2022-11-20T16:28:50;2.45;;;2.35;;
37931;SDS011;23758;42.640;23.302;2022-11-20T16:31:16;2.30;;;2.20;;
37931;SDS011;23758;42.640;23.302;2022-11-20T16:33:48;2.88;;;2.67;;
37931;SDS011;23758;42.640;23.302;2022-11-20T16:36:17;2.20;;;2.10;;